This is the latest recevied weather packets stored in our database for station/object KC8YYF. If no packets are shown the sender has not sent any weather packets the latest 10 day(s).
| Time | Temp. | Humidity | Pressure | Rain* | Wind** | Luminosity | Snow |
|---|---|---|---|---|---|---|---|
| 1777936339 | 20.56° C | 56% | 1007.5 hPa | 0 mm | - | 10 W/m² | - |
| 1777936035 | 21.11° C | 57% | 1007.6 hPa | 0 mm | - | 22 W/m² | - |
| 1777935734 | 21.11° C | 54% | 1007.6 hPa | 0 mm | - | 39 W/m² | - |
| 1777935432 | 21.11° C | 57% | 1007.6 hPa | 0 mm | - | 59 W/m² | - |
| 1777935128 | 20.56° C | 56% | 1007.6 hPa | 0 mm | - | 33 W/m² | - |
| 1777934825 | 20.56° C | 55% | 1007.6 hPa | 0 mm | - | 29 W/m² | - |
| 1777934523 | 20.56° C | 56% | 1007.7 hPa | 0 mm | - | 27 W/m² | - |
| 1777934219 | 21.11° C | 57% | 1007.7 hPa | 0 mm | - | 35 W/m² | - |
| 1777933914 | 21.67° C | 56% | 1007.5 hPa | 0 mm | - | 34 W/m² | - |
| 1777933612 | 21.67° C | 54% | 1007.6 hPa | 0 mm | - | 50 W/m² | - |
| 1777933308 | 22.22° C | 55% | 1007.5 hPa | 0 mm | - | 53 W/m² | - |
| 1777933006 | 22.22° C | 54% | 1007.6 hPa | 0 mm | - | 147 W/m² | - |
| 1777932703 | 21.11° C | 56% | 1007.6 hPa | 0 mm | - | 71 W/m² | - |
| 1777932399 | 21.11° C | 56% | 1007.4 hPa | 0 mm | - | 48 W/m² | - |
| 1777932097 | 21.11° C | 58% | 1007.6 hPa | 0 mm | - | 42 W/m² | - |
| 1777931793 | 21.67° C | 56% | 1007.6 hPa | 0 mm | - | 44 W/m² | - |
| 1777931491 | 22.22° C | 55% | 1007.7 hPa | 0 mm | - | 61 W/m² | - |
| 1777931186 | 23.33° C | 52% | 1007.9 hPa | 0 mm | - | 269 W/m² | - |
| 1777930883 | 23.89° C | 52% | 1007.7 hPa | 0 mm | - | 321 W/m² | - |
| 1777930579 | 23.89° C | 50% | 1007.6 hPa | 0 mm | - | 345 W/m² | - |
| 1777930276 | 23.33° C | 51% | 1007.6 hPa | 0 mm | - | 376 W/m² | - |
| 1777929972 | 22.78° C | 53% | 1007.6 hPa | 0 mm | - | 355 W/m² | - |
| 1777929670 | 22.78° C | 51% | 1007.9 hPa | 0 mm | - | 331 W/m² | - |
| 1777929367 | 22.78° C | 54% | 1008 hPa | 0 mm | - | 275 W/m² | - |
| 1777929063 | 21.67° C | 56% | 1007.9 hPa | 0 mm | - | 50 W/m² | - |
* Rain latest hour (hover to see other rain measurements)
** Current wind speed in m/s (hover to see current wind gust speed)